Time;durP1;ratioP1;P1;durP2;ratioP2;P2;SDS_P1;SDS_P2;PMS_P1;PMS_P2;Temp;Humidity;BMP_temperature;BMP_pressure;BME280_temperature;BME280_humidity;BME280_pressure;Samples;Min_cycle;Max_cycle;Signal;HPM_P1;HPM_P2
2023/07/25 04:01:10;;;;;;;0.60;0.30;;;19.30;25.50;;;;;;5732156;23;20494;-73
2023/07/25 04:03:38;;;;;;;0.60;0.10;;;19.10;29.80;;;;;;5014365;28;20443;-73
2023/07/25 04:06:06;;;;;;;1.30;0.27;;;19.10;34.20;;;;;;5014447;28;21031;-72
2023/07/25 04:08:33;;;;;;;2.10;1.47;;;19.00;37.00;;;;;;5014565;28;20478;-73
2023/07/25 04:11:01;;;;;;;0.60;0.30;;;19.00;41.10;;;;;;5014427;28;21127;-73
2023/07/25 04:13:29;;;;;;;0.60;0.20;;;19.00;42.20;;;;;;5015318;28;20879;-72
2023/07/25 04:15:57;;;;;;;0.60;0.20;;;19.00;47.50;;;;;;5014737;28;20540;-72
2023/07/25 04:18:27;;;;;;;0.60;0.10;;;18.90;50.10;;;;;;4988270;28;20471;-72
2023/07/25 04:20:55;;;;;;;0.60;0.10;;;;;;;;;;5007429;28;20474;-74
2023/07/25 04:23:23;;;;;;;0.60;0.20;;;;;;;;;;5002140;28;20819;-72
2023/07/25 04:25:51;;;;;;;0.60;0.10;;;;;;;;;;4994041;28;21006;-72
2023/07/25 04:28:19;;;;;;;0.60;0.10;;;19.00;57.10;;;;;;5006323;28;20531;-73
2023/07/25 04:30:47;;;;;;;0.93;0.37;;;19.00;58.10;;;;;;4997699;28;20501;-73
2023/07/25 04:33:15;;;;;;;0.70;0.30;;;19.00;60.20;;;;;;5003726;28;20524;-73
2023/07/25 04:35:45;;;;;;;0.60;0.10;;;19.00;63.40;;;;;;4998809;28;20857;-73
2023/07/25 04:38:13;;;;;;;0.60;0.10;;;18.90;66.50;;;;;;4991509;28;20948;-72
2023/07/25 04:40:42;;;;;;;0.90;0.20;;;18.80;70.80;;;;;;4999960;28;20941;-73
2023/07/25 04:43:10;;;;;;;0.60;0.13;;;18.80;75.10;;;;;;5000416;28;20573;-72
2023/07/25 04:45:39;;;;;;;4.23;0.37;;;18.90;76.30;;;;;;5002930;28;20449;-72
2023/07/25 04:48:07;;;;;;;0.60;0.20;;;18.80;77.70;;;;;;5013968;28;20440;-72
2023/07/25 04:50:35;;;;;;;1.30;0.27;;;18.90;80.90;;;;;;5014590;28;20451;-72
2023/07/25 04:53:04;;;;;;;0.60;0.10;;;19.00;81.40;;;;;;5014172;28;20479;-72
2023/07/25 04:55:32;;;;;;;0.60;0.13;;;19.00;80.90;;;;;;5013836;28;20447;-72
2023/07/25 04:58:00;;;;;;;0.60;0.10;;;19.10;79.00;;;;;;5015014;28;20494;-72
2023/07/25 05:00:27;;;;;;;1.40;0.77;;;19.00;77.60;;;;;;5014538;28;20870;-72
2023/07/25 05:02:57;;;;;;;31.00;4.27;;;18.90;79.00;;;;;;5014197;28;20439;-71
2023/07/25 05:05:25;;;;;;;0.60;0.10;;;18.80;81.50;;;;;;5014736;28;20450;-72
2023/07/25 05:07:53;;;;;;;0.60;0.10;;;18.90;82.60;;;;;;4976843;28;20543;-70
2023/07/25 05:10:22;;;;;;;0.60;0.10;;;19.00;83.00;;;;;;4993050;28;20499;-71
2023/07/25 05:12:50;;;;;;;0.60;0.10;;;18.90;85.30;;;;;;4993646;28;20916;-75
2023/07/25 05:15:18;;;;;;;0.70;0.37;;;18.90;90.00;;;;;;4994401;28;20555;-71
2023/07/25 05:17:46;;;;;;;0.60;0.10;;;18.80;91.80;;;;;;4994227;28;20511;-70
2023/07/25 05:20:14;;;;;;;0.60;0.10;;;18.70;94.00;;;;;;4994132;28;20448;-71
2023/07/25 05:22:42;;;;;;;1.17;0.73;;;18.60;98.50;;;;;;4993854;28;20504;-70
2023/07/25 05:25:10;;;;;;;0.60;0.10;;;18.50;99.90;;;;;;4994069;28;20864;-72
2023/07/25 05:27:39;;;;;;;1.57;1.47;;;18.50;99.90;;;;;;4994278;28;20940;-71
2023/07/25 05:30:08;;;;;;;0.60;0.13;;;;;;;;;;4994775;28;20444;-73
2023/07/25 05:32:35;;;;;;;0.80;0.63;;;21.20;99.90;;;;;;4994631;28;20488;-69
2023/07/25 05:35:05;;;;;;;0.80;0.77;;;18.30;99.90;;;;;;4996840;28;20529;-68
2023/07/25 05:37:37;;;;;;;0.60;0.20;;;18.40;99.90;;;;;;4988752;28;21041;-70
2023/07/25 05:40:06;;;;;;;0.60;0.10;;;18.40;99.90;;;;;;4989637;28;20490;-71
2023/07/25 05:42:34;;;;;;;0.60;0.20;;;18.30;99.90;;;;;;5006066;28;20551;-70
2023/07/25 05:45:04;;;;;;;0.60;0.10;;;18.40;99.90;;;;;;4997061;28;20466;-70
2023/07/25 05:47:32;;;;;;;0.60;0.20;;;;;;;;;;5005858;28;20932;-70
2023/07/25 05:50:00;;;;;;;0.60;0.10;;;18.40;99.90;;;;;;4989153;28;20478;-72
2023/07/25 05:52:28;;;;;;;0.60;0.10;;;18.40;99.90;;;;;;5000841;28;20626;-71
2023/07/25 05:54:56;;;;;;;0.60;0.10;;;18.40;99.90;;;;;;5004874;28;20446;-70
2023/07/25 05:57:24;;;;;;;0.60;0.20;;;18.40;99.90;;;;;;4996015;28;20546;-72
2023/07/25 05:59:52;;;;;;;0.60;0.20;;;;;;;;;;4997740;28;20467;-72
2023/07/25 06:02:21;;;;;;;0.60;0.10;;;18.30;99.90;;;;;;4988998;28;20477;-71
2023/07/25 06:04:49;;;;;;;0.60;0.20;;;18.30;99.90;;;;;;4974386;28;20461;-70
2023/07/25 06:07:17;;;;;;;0.60;0.10;;;18.30;99.90;;;;;;4972254;28;21190;-71
2023/07/25 06:09:47;;;;;;;0.60;0.10;;;18.30;99.90;;;;;;4990569;28;20467;-71
2023/07/25 06:12:16;;;;;;;0.60;0.10;;;18.40;99.90;;;;;;4995745;28;20855;-71
2023/07/25 06:14:44;;;;;;;0.70;0.40;;;18.40;99.90;;;;;;4986086;28;20548;-71
2023/07/25 06:17:11;;;;;;;0.60;0.10;;;18.40;99.90;;;;;;4994498;28;20453;-71
2023/07/25 06:19:41;;;;;;;0.60;0.10;;;18.40;99.90;;;;;;4980498;28;20472;-71
2023/07/25 06:22:09;;;;;;;0.60;0.10;;;18.40;99.90;;;;;;4980899;28;20460;-72
2023/07/25 06:24:37;;;;;;;0.60;0.10;;;18.40;99.90;;;;;;4974669;28;20509;-72
2023/07/25 06:27:05;;;;;;;0.60;0.10;;;18.30;99.90;;;;;;4977342;28;20453;-72
2023/07/25 06:29:33;;;;;;;0.60;0.10;;;18.30;99.90;;;;;;4974738;28;20528;-72
2023/07/25 06:32:01;;;;;;;0.60;0.10;;;18.40;99.90;;;;;;4981995;28;20496;-71
2023/07/25 06:34:29;;;;;;;0.60;0.10;;;18.40;99.90;;;;;;4978594;28;20889;-73
2023/07/25 06:36:58;;;;;;;0.70;0.20;;;18.40;99.90;;;;;;4981005;28;20471;-71
2023/07/25 06:39:27;;;;;;;0.60;0.10;;;18.40;99.90;;;;;;5001097;28;20524;-72
2023/07/25 06:41:54;;;;;;;0.60;0.10;;;18.30;99.90;;;;;;5000029;28;20503;-71
2023/07/25 06:44:23;;;;;;;0.93;0.73;;;18.20;99.90;;;;;;4996858;28;20452;-71
2023/07/25 06:46:51;;;;;;;0.60;0.10;;;18.20;99.90;;;;;;4990082;28;20484;-72
2023/07/25 06:49:19;;;;;;;4.13;3.17;;;;;;;;;;4997108;28;20538;-72
2023/07/25 06:51:48;;;;;;;0.60;0.10;;;;;;;;;;5003032;28;20492;-70
2023/07/25 06:54:17;;;;;;;0.60;0.10;;;18.20;99.90;;;;;;4995908;28;20447;-71
2023/07/25 06:56:45;;;;;;;0.60;0.20;;;;;;;;;;4999782;28;20577;-71
2023/07/25 06:59:14;;;;;;;0.60;0.10;;;18.10;99.90;;;;;;5000266;28;20462;-71
2023/07/25 07:01:41;;;;;;;0.60;0.10;;;18.10;99.90;;;;;;4997050;28;21071;-70
2023/07/25 07:04:09;;;;;;;0.60;0.30;;;18.10;99.90;;;;;;4991143;28;20451;-72
2023/07/25 07:06:38;;;;;;;0.60;0.10;;;;;;;;;;4989602;28;20506;-71
2023/07/25 07:09:06;;;;;;;0.67;0.27;;;18.10;99.90;;;;;;4981347;28;20439;-71
2023/07/25 07:11:35;;;;;;;0.60;0.30;;;18.00;99.90;;;;;;4989816;28;20471;-71
2023/07/25 07:14:03;;;;;;;0.60;0.20;;;18.00;99.90;;;;;;4982898;28;20571;-70
2023/07/25 07:16:31;;;;;;;0.60;0.20;;;18.00;99.90;;;;;;4972193;28;20456;-70
2023/07/25 07:18:59;;;;;;;0.80;0.57;;;18.00;99.90;;;;;;4978996;28;20807;-70
2023/07/25 07:21:27;;;;;;;0.60;0.10;;;18.00;99.90;;;;;;4988750;28;20467;-72
2023/07/25 07:23:57;;;;;;;0.60;0.40;;;17.90;99.90;;;;;;4991180;28;20528;-72
2023/07/25 07:26:25;;;;;;;0.60;0.10;;;18.00;99.90;;;;;;4981668;28;20463;-70
2023/07/25 07:28:54;;;;;;;0.60;0.20;;;17.90;99.90;;;;;;4971960;28;20466;-70
2023/07/25 07:31:24;;;;;;;0.60;0.10;;;17.90;99.90;;;;;;4987124;28;21022;-70
2023/07/25 07:33:53;;;;;;;0.70;0.53;;;17.90;99.90;;;;;;4974895;28;20480;-71
2023/07/25 07:36:20;;;;;;;0.60;0.10;;;17.80;99.90;;;;;;4976076;28;20543;-70
2023/07/25 07:38:48;;;;;;;0.60;0.20;;;17.90;99.90;;;;;;4976093;28;20451;-70
2023/07/25 07:41:16;;;;;;;0.60;0.10;;;17.90;99.90;;;;;;4976111;28;20479;-70
2023/07/25 07:43:44;;;;;;;0.60;0.10;;;17.90;99.90;;;;;;4975708;28;20449;-70
2023/07/25 07:46:13;;;;;;;0.60;0.10;;;18.00;99.90;;;;;;4976025;28;20879;-71
2023/07/25 07:48:43;;;;;;;0.60;0.10;;;18.00;99.90;;;;;;4985684;28;20457;-71
2023/07/25 07:51:11;;;;;;;0.60;0.10;;;17.90;99.90;;;;;;4993045;28;20503;-71
2023/07/25 07:53:39;;;;;;;0.60;0.10;;;18.00;99.90;;;;;;4980031;28;20477;-70
2023/07/25 07:56:08;;;;;;;0.60;0.13;;;18.00;99.90;;;;;;4996934;28;20517;-71
2023/07/25 07:58:36;;;;;;;0.60;0.10;;;18.00;99.90;;;;;;5010389;28;20532;-71
2023/07/25 08:01:04;;;;;;;0.60;0.10;;;18.10;99.90;;;;;;5000485;28;20494;-71
2023/07/25 08:03:33;;;;;;;0.60;0.20;;;18.10;99.90;;;;;;5002202;28;20513;-73
2023/07/25 08:06:01;;;;;;;0.60;0.10;;;18.00;99.90;;;;;;5013388;28;20534;-71
2023/07/25 08:08:29;;;;;;;0.60;0.10;;;;;;;;;;4992266;28;20551;-71
2023/07/25 08:10:57;;;;;;;0.60;0.20;;;17.90;99.90;;;;;;4985404;28;20555;-72
2023/07/25 08:13:24;;;;;;;0.60;0.30;;;17.90;99.90;;;;;;4987444;28;20491;-70
2023/07/25 08:15:52;;;;;;;0.60;0.20;;;17.90;99.90;;;;;;4993830;28;21003;-70
2023/07/25 08:18:20;;;;;;;0.60;0.10;;;17.80;99.90;;;;;;4997964;28;20534;-69
2023/07/25 08:20:55;;;;;;;0.60;0.10;;;17.90;99.90;;;;;;5003303;28;20500;-70
2023/07/25 08:23:23;;;;;;;0.60;0.20;;;17.90;99.90;;;;;;5003700;28;20437;-69
2023/07/25 08:25:51;;;;;;;0.60;0.10;;;17.90;99.90;;;;;;5002635;28;20803;-70
2023/07/25 08:28:19;;;;;;;0.60;0.30;;;17.90;99.90;;;;;;5009732;28;20443;-70
2023/07/25 08:30:48;;;;;;;0.80;0.30;;;;;;;;;;5003775;28;20472;-70
2023/07/25 08:33:18;;;;;;;0.60;0.10;;;17.80;99.90;;;;;;4999412;28;20482;-68
2023/07/25 08:35:47;;;;;;;0.60;0.10;;;17.70;99.90;;;;;;4999289;28;20447;-70
2023/07/25 08:38:16;;;;;;;0.60;0.10;;;17.70;99.90;;;;;;4994031;28;20450;-69
2023/07/25 08:40:46;;;;;;;0.83;0.20;;;17.70;99.90;;;;;;4993295;28;20445;-70
2023/07/25 08:43:15;;;;;;;0.60;0.20;;;17.80;99.90;;;;;;5000250;28;20455;-67
2023/07/25 08:45:46;;;;;;;0.60;0.10;;;17.80;99.90;;;;;;4994741;28;20551;-69
2023/07/25 08:48:16;;;;;;;0.60;0.10;;;17.80;99.90;;;;;;5006228;28;20906;-75
2023/07/25 08:50:46;;;;;;;4.73;0.87;;;17.70;99.90;;;;;;5002096;28;20539;-73
2023/07/25 08:53:16;;;;;;;0.60;0.13;;;17.70;99.90;;;;;;4994927;28;20472;-72
2023/07/25 08:55:45;;;;;;;1.67;1.40;;;17.60;99.90;;;;;;4986668;28;20887;-74
2023/07/25 08:58:15;;;;;;;0.60;0.20;;;17.60;99.90;;;;;;4980737;28;20460;-76
2023/07/25 09:00:43;;;;;;;0.87;0.20;;;;;;;;;;4992637;28;20538;-76
2023/07/25 09:03:12;;;;;;;0.60;0.10;;;17.50;99.90;;;;;;4987146;28;20462;-74
2023/07/25 09:05:40;;;;;;;0.60;0.10;;;17.50;99.90;;;;;;4979679;28;20536;-75
2023/07/25 09:08:08;;;;;;;0.60;0.10;;;17.50;99.90;;;;;;4985852;28;20518;-77
2023/07/25 09:10:38;;;;;;;1.27;0.30;;;17.60;99.90;;;;;;4982672;28;21001;-76
2023/07/25 09:13:06;;;;;;;0.60;0.13;;;;;;;;;;4985581;28;20540;-77
2023/07/25 09:15:34;;;;;;;0.60;0.10;;;;;;;;;;4987153;28;20503;-77
2023/07/25 09:18:02;;;;;;;0.60;0.10;;;;;;;;;;4984402;28;20456;-75
2023/07/25 09:20:30;;;;;;;0.80;0.17;;;17.70;99.90;;;;;;4982871;28;20444;-76
2023/07/25 09:22:58;;;;;;;0.80;0.60;;;17.70;99.90;;;;;;4974375;28;20461;-73
2023/07/25 09:25:27;;;;;;;0.60;0.10;;;17.80;99.90;;;;;;4974406;28;20453;-75
2023/07/25 09:27:56;;;;;;;0.60;0.20;;;17.80;99.90;;;;;;4984125;28;20532;-74
2023/07/25 09:30:27;;;;;;;0.60;0.10;;;;;;;;;;4987174;28;21061;-74
2023/07/25 09:32:56;;;;;;;0.60;0.20;;;;;;;;;;4984173;28;20790;-76
2023/07/25 09:35:24;;;;;;;0.60;0.10;;;;;;;;;;4985104;28;20490;-69
2023/07/25 09:37:53;;;;;;;0.60;0.20;;;17.70;99.90;;;;;;4989044;28;20472;-69
2023/07/25 09:40:22;;;;;;;0.60;0.13;;;17.80;99.90;;;;;;4982260;28;20519;-68
2023/07/25 09:42:51;;;;;;;0.60;0.10;;;17.90;99.90;;;;;;4993792;28;20646;-69
2023/07/25 09:45:20;;;;;;;0.60;0.20;;;17.90;99.90;;;;;;5006087;28;20447;-71
2023/07/25 09:47:52;;;;;;;1.03;0.77;;;17.90;99.90;;;;;;4999852;28;20816;-68
2023/07/25 09:50:25;;;;;;;0.77;0.27;;;17.90;99.90;;;;;;4985757;28;20468;-76
2023/07/25 09:52:53;;;;;;;3.13;0.93;;;21.70;99.90;;;;;;4982287;28;20482;-76
2023/07/25 09:55:21;;;;;;;1.03;0.87;;;;;;;;;;4990089;28;20584;-66
2023/07/25 09:57:50;;;;;;;2.03;1.63;;;;;;;;;;4986895;28;20545;-69
2023/07/25 10:00:20;;;;;;;2.50;0.93;;;17.30;99.90;;;;;;5005071;28;20444;-69
2023/07/25 10:02:49;;;;;;;0.60;0.10;;;17.10;99.90;;;;;;4993831;28;20580;-68
2023/07/25 10:05:18;;;;;;;0.60;0.10;;;17.20;99.90;;;;;;4988931;28;20451;-69
2023/07/25 10:07:49;;;;;;;0.60;0.17;;;17.20;99.90;;;;;;4988817;28;20495;-68
2023/07/25 10:10:17;;;;;;;0.70;0.30;;;17.30;99.90;;;;;;4991654;28;20438;-68
2023/07/25 10:12:45;;;;;;;0.60;0.20;;;17.20;99.90;;;;;;4985601;28;20493;-70
2023/07/25 10:15:13;;;;;;;0.60;0.10;;;17.20;99.90;;;;;;4981076;28;20840;-68
2023/07/25 10:18:00;;;;;;;0.60;0.20;;;17.20;99.90;;;;;;5087893;28;20538;-68
2023/07/25 10:20:28;;;;;;;0.60;0.10;;;17.30;99.90;;;;;;5086931;28;20456;-68
2023/07/25 10:23:07;;;;;;;0.60;0.20;;;17.40;99.90;;;;;;5077515;28;21098;-70
2023/07/25 10:25:35;;;;;;;0.60;0.10;;;17.60;99.90;;;;;;5082191;28;20615;-68
2023/07/25 10:28:04;;;;;;;3.90;0.40;;;17.60;99.90;;;;;;5084252;28;20544;-68
2023/07/25 10:30:40;;;;;;;0.60;0.10;;;17.70;99.90;;;;;;5078596;28;20594;-68
2023/07/25 10:33:09;;;;;;;1.00;0.40;;;17.80;99.90;;;;;;5070032;28;21020;-66
2023/07/25 10:35:52;;;;;;;0.60;0.20;;;17.90;99.90;;;;;;5083520;28;20530;-68
2023/07/25 10:38:32;;;;;;;0.70;0.50;;;18.00;99.90;;;;;;5079284;28;20563;-70
2023/07/25 10:41:01;;;;;;;0.60;0.10;;;18.00;99.90;;;;;;5083209;28;21014;-68
2023/07/25 10:43:52;;;;;;;0.60;0.10;;;18.10;99.90;;;;;;5087182;28;20429;-69
2023/07/25 10:46:21;;;;;;;0.60;0.20;;;18.20;99.90;;;;;;5079860;28;20486;-68
2023/07/25 10:48:51;;;;;;;0.60;0.20;;;18.20;99.90;;;;;;5088794;28;21091;-68
2023/07/25 10:51:21;;;;;;;0.60;0.10;;;18.30;99.90;;;;;;5079675;28;20551;-68
2023/07/25 10:54:09;;;;;;;0.60;0.10;;;18.20;99.90;;;;;;5080510;28;20436;-68
2023/07/25 10:56:37;;;;;;;0.60;0.10;;;18.30;99.90;;;;;;5087382;28;20483;-70
2023/07/25 10:59:10;;;;;;;0.60;0.20;;;18.30;99.90;;;;;;5087124;28;21000;-70
2023/07/25 11:01:47;;;;;;;0.80;0.70;;;18.30;99.90;;;;;;5072938;28;20479;-69
2023/07/25 11:04:37;;;;;;;0.60;0.20;;;18.30;99.90;;;;;;5077504;28;20475;-69
2023/07/25 11:07:10;;;;;;;0.60;0.20;;;18.40;99.90;;;;;;5074985;28;20463;-69
2023/07/25 11:09:42;;;;;;;0.60;0.10;;;18.50;99.90;;;;;;5087708;28;20502;-69
2023/07/25 11:12:11;;;;;;;0.60;0.20;;;18.50;99.90;;;;;;5079849;28;20469;-70
2023/07/25 11:14:43;;;;;;;4.63;1.73;;;18.50;99.90;;;;;;5075781;28;20480;-69
2023/07/25 11:17:11;;;;;;;0.60;0.20;;;18.40;99.90;;;;;;5066871;28;20507;-69
2023/07/25 11:19:41;;;;;;;0.60;0.10;;;18.60;99.90;;;;;;5077429;28;20432;-69
2023/07/25 11:22:10;;;;;;;0.60;0.20;;;18.70;99.90;;;;;;5074987;28;20460;-70
2023/07/25 11:24:42;;;;;;;0.60;0.10;;;18.80;99.90;;;;;;5075075;28;20460;-69
2023/07/25 11:27:09;;;;;;;0.60;0.10;;;18.90;99.90;;;;;;5069849;28;20518;-70
2023/07/25 11:29:37;;;;;;;0.60;0.10;;;18.90;99.90;;;;;;5068139;28;20950;-69
2023/07/25 11:32:06;;;;;;;0.60;0.10;;;19.00;99.90;;;;;;5072408;28;20551;-68
2023/07/25 11:34:34;;;;;;;0.60;0.10;;;19.10;99.90;;;;;;5073070;28;20439;-70
2023/07/25 11:37:11;;;;;;;10.43;4.47;;;19.20;94.20;;;;;;5067791;28;21015;-69
2023/07/25 11:39:38;;;;;;;0.60;0.20;;;19.20;89.50;;;;;;5072558;28;20449;-69
2023/07/25 11:42:08;;;;;;;0.60;0.10;;;19.30;87.00;;;;;;5066341;28;20469;-69
2023/07/25 11:44:37;;;;;;;0.60;0.10;;;19.30;76.60;;;;;;5070719;28;20461;-72
2023/07/25 11:47:05;;;;;;;0.60;0.10;;;19.40;75.20;;;;;;5065551;28;20805;-69
2023/07/25 11:49:34;;;;;;;0.60;0.10;;;19.40;72.40;;;;;;5072748;28;20930;-70
2023/07/25 11:52:18;;;;;;;0.60;0.13;;;19.40;62.70;;;;;;5073037;28;20491;-68
2023/07/25 11:54:46;;;;;;;0.60;0.10;;;19.50;57.20;;;;;;5072029;28;20459;-69
2023/07/25 11:57:14;;;;;;;0.60;0.10;;;19.50;56.40;;;;;;5067762;28;20495;-68
2023/07/25 11:59:42;;;;;;;0.60;0.13;;;19.50;57.20;;;;;;5072704;28;20532;-69
2023/07/25 12:02:12;;;;;;;0.80;0.73;;;19.50;56.70;;;;;;5061324;28;20926;-69
2023/07/25 12:04:44;;;;;;;0.60;0.10;;;19.50;53.60;;;;;;5071433;28;21079;-69
2023/07/25 12:07:12;;;;;;;0.60;0.10;;;19.50;51.80;;;;;;5073469;28;20490;-69
2023/07/25 12:09:50;;;;;;;0.60;0.10;;;19.50;52.30;;;;;;5073438;28;20493;-68
2023/07/25 12:12:18;;;;;;;0.60;0.10;;;19.60;53.90;;;;;;5071916;28;20526;-66
2023/07/25 12:14:57;;;;;;;0.70;0.47;;;19.70;48.30;;;;;;5063679;28;20446;-68
2023/07/25 12:17:41;;;;;;;0.60;0.20;;;19.70;43.20;;;;;;5069621;28;20988;-71
2023/07/25 12:20:14;;;;;;;0.60;0.10;;;19.80;41.90;;;;;;5052915;28;20454;-69
2023/07/25 12:22:42;;;;;;;0.60;0.10;;;20.50;41.00;;;;;;5053525;28;20877;-69
2023/07/25 12:25:15;;;;;;;0.60;0.10;;;19.90;41.60;;;;;;5062162;28;21462;-69
2023/07/25 12:27:46;;;;;;;0.60;0.10;;;20.00;40.20;;;;;;5065177;28;20453;-69
2023/07/25 12:30:13;;;;;;;0.60;0.10;;;20.00;35.40;;;;;;5070905;28;20516;-68
2023/07/25 12:32:41;;;;;;;0.60;0.10;;;20.10;32.60;;;;;;5071748;28;20461;-67
2023/07/25 12:35:11;;;;;;;0.60;0.10;;;20.20;26.10;;;;;;5072271;28;20437;-67
2023/07/25 12:37:39;;;;;;;0.60;0.10;;;;;;;;;;5058247;28;20491;-69
2023/07/25 12:40:08;;;;;;;0.60;0.10;;;20.40;21.50;;;;;;5051119;28;20442;-68
2023/07/25 12:42:37;;;;;;;0.60;0.20;;;20.50;23.30;;;;;;5051809;28;20455;-69
2023/07/25 12:45:06;;;;;;;0.60;0.10;;;20.50;22.80;;;;;;5052123;28;20529;-69
2023/07/25 12:47:38;;;;;;;0.60;0.20;;;;;;;;;;5068653;28;20442;-68
2023/07/25 12:50:08;;;;;;;0.60;0.20;;;20.10;21.70;;;;;;5052696;28;20434;-69
2023/07/25 12:52:36;;;;;;;0.60;0.10;;;19.90;25.20;;;;;;5053449;28;20495;-68
2023/07/25 12:55:05;;;;;;;0.60;0.10;;;19.90;27.20;;;;;;5052611;28;20512;-68
2023/07/25 12:57:33;;;;;;;0.60;0.20;;;19.80;29.50;;;;;;5052143;28;20480;-67
2023/07/25 13:00:03;;;;;;;0.60;0.10;;;19.70;29.80;;;;;;5064936;28;20472;-69
2023/07/25 13:02:34;;;;;;;0.60;0.10;;;19.60;29.60;;;;;;5073740;28;20552;-68
2023/07/25 13:05:02;;;;;;;0.60;0.10;;;19.40;29.80;;;;;;5064853;28;20458;-69
2023/07/25 13:07:30;;;;;;;0.60;0.20;;;19.30;34.60;;;;;;5051743;28;20488;-68
2023/07/25 13:09:58;;;;;;;0.60;0.20;;;19.20;28.80;;;;;;5051631;28;20449;-69
2023/07/25 13:12:26;;;;;;;1.00;0.40;;;19.30;30.60;;;;;;5070656;28;20887;-70
2023/07/25 13:14:53;;;;;;;0.60;0.10;;;19.30;30.10;;;;;;5051375;28;20453;-73
2023/07/25 13:17:23;;;;;;;0.60;0.10;;;19.50;34.10;;;;;;5051070;28;20513;-70
2023/07/25 13:19:51;;;;;;;0.80;0.40;;;;;;;;;;5051648;28;20515;-70
2023/07/25 13:22:19;;;;;;;0.60;0.10;;;19.80;29.00;;;;;;5051057;28;20881;-72
2023/07/25 13:24:46;;;;;;;0.60;0.10;;;19.80;28.60;;;;;;5052159;28;20448;-72
2023/07/25 13:27:14;;;;;;;0.80;0.50;;;19.90;28.10;;;;;;5070987;28;20848;-70
2023/07/25 13:29:42;;;;;;;0.60;0.10;;;19.70;20.80;;;;;;5071178;28;20821;-70
2023/07/25 13:32:10;;;;;;;0.70;0.20;;;19.60;24.70;;;;;;5071163;28;20465;-70
2023/07/25 13:34:39;;;;;;;0.60;0.20;;;19.50;27.30;;;;;;5067690;28;20461;-70
2023/07/25 13:37:07;;;;;;;0.73;0.30;;;19.40;36.80;;;;;;5063968;28;20442;-71
2023/07/25 13:39:35;;;;;;;2.40;1.90;;;19.20;49.10;;;;;;5067454;28;20643;-69
2023/07/25 13:42:03;;;;;;;0.60;0.13;;;18.90;58.80;;;;;;5078865;28;20494;-70
2023/07/25 13:44:31;;;;;;;0.70;0.30;;;18.70;64.60;;;;;;5080013;28;20453;-69
2023/07/25 13:46:59;;;;;;;0.60;0.10;;;18.60;77.40;;;;;;5080439;28;20441;-72
2023/07/25 13:49:27;;;;;;;0.70;0.30;;;18.60;87.10;;;;;;5072480;28;20992;-69
2023/07/25 13:51:56;;;;;;;0.60;0.10;;;18.60;92.20;;;;;;5071110;28;20467;-70
2023/07/25 13:54:24;;;;;;;0.60;0.20;;;18.60;93.00;;;;;;5071467;28;20445;-73
2023/07/25 13:56:52;;;;;;;0.60;0.20;;;18.60;94.00;;;;;;5068945;28;20540;-71
2023/07/25 13:59:20;;;;;;;0.60;0.10;;;18.70;94.70;;;;;;5065819;28;20579;-70
2023/07/25 14:01:48;;;;;;;0.60;0.10;;;18.80;95.40;;;;;;5069772;28;21002;-72
2023/07/25 14:04:16;;;;;;;0.60;0.10;;;18.80;96.60;;;;;;5070113;28;20441;-71
2023/07/25 14:06:44;;;;;;;0.60;0.10;;;18.90;99.10;;;;;;5067134;28;20446;-70
2023/07/25 14:09:13;;;;;;;0.60;0.10;;;19.00;96.80;;;;;;5069374;28;20441;-70
2023/07/25 14:11:41;;;;;;;0.60;0.10;;;19.20;91.90;;;;;;5070212;28;20536;-70
2023/07/25 14:14:09;;;;;;;0.60;0.10;;;19.30;89.00;;;;;;5070305;28;20442;-71
2023/07/25 14:16:37;;;;;;;0.60;0.10;;;19.40;83.50;;;;;;5065852;28;20975;-71
2023/07/25 14:19:05;;;;;;;0.60;0.10;;;19.50;82.90;;;;;;5061983;28;20485;-70
2023/07/25 14:21:33;;;;;;;0.60;0.20;;;19.60;83.20;;;;;;5057527;28;20466;-70
2023/07/25 14:24:01;;;;;;;0.90;0.60;;;19.60;75.30;;;;;;5055473;28;20538;-70
2023/07/25 14:26:31;;;;;;;0.60;0.10;;;19.70;64.90;;;;;;5068128;28;20441;-71
2023/07/25 14:29:03;;;;;;;0.60;0.30;;;19.60;56.70;;;;;;5069195;28;20440;-72
2023/07/25 14:31:31;;;;;;;0.60;0.10;;;19.50;57.00;;;;;;5064704;28;20822;-71
2023/07/25 14:34:00;;;;;;;0.60;0.20;;;19.60;58.00;;;;;;5059066;28;20491;-71
2023/07/25 14:36:28;;;;;;;0.60;0.10;;;19.70;62.90;;;;;;5067205;28;20449;-72
2023/07/25 14:38:56;;;;;;;0.60;0.10;;;19.90;68.90;;;;;;5065548;28;20482;-71
2023/07/25 14:41:24;;;;;;;0.60;0.10;;;20.00;64.50;;;;;;5070799;28;20471;-72
2023/07/25 14:43:53;;;;;;;0.60;0.10;;;20.10;60.70;;;;;;5070199;28;20514;-72
2023/07/25 14:46:21;;;;;;;0.60;0.10;;;20.40;62.90;;;;;;5071138;28;20480;-70
2023/07/25 14:48:49;;;;;;;0.60;0.20;;;;;;;;;;5067838;28;20955;-70
2023/07/25 14:51:17;;;;;;;0.60;0.10;;;20.70;48.60;;;;;;5066688;28;20467;-69
2023/07/25 14:53:45;;;;;;;0.60;0.20;;;;;;;;;;5070244;28;20442;-68
2023/07/25 14:56:13;;;;;;;0.60;0.10;;;20.70;37.50;;;;;;5070311;28;20926;-69
2023/07/25 14:58:41;;;;;;;0.60;0.10;;;20.70;38.70;;;;;;5073533;28;20570;-71
2023/07/25 15:01:11;;;;;;;0.60;0.10;;;20.80;36.10;;;;;;5066585;28;20473;-71
2023/07/25 15:03:39;;;;;;;0.60;0.20;;;;;;;;;;5068648;28;20453;-71
2023/07/25 15:06:08;;;;;;;0.60;0.20;;;20.70;27.40;;;;;;5071932;28;20479;-75
2023/07/25 15:08:35;;;;;;;0.60;0.10;;;20.70;28.40;;;;;;5066068;28;20472;-71
2023/07/25 15:11:04;;;;;;;0.60;0.20;;;;;;;;;;5066955;28;20477;-72
2023/07/25 15:13:32;;;;;;;0.60;0.10;;;20.60;22.10;;;;;;5072059;28;20442;-72
2023/07/25 15:16:00;;;;;;;0.60;0.20;;;20.60;19.90;;;;;;5073568;28;20981;-71
2023/07/25 15:18:29;;;;;;;0.60;0.10;;;20.60;19.40;;;;;;5058225;28;20486;-72
2023/07/25 15:20:57;;;;;;;0.60;0.10;;;20.50;15.40;;;;;;5065317;28;20554;-71
2023/07/25 15:23:25;;;;;;;0.60;0.10;;;;;;;;;;5073214;28;20435;-72
2023/07/25 15:25:53;;;;;;;0.60;0.10;;;20.50;7.80;;;;;;5073387;28;20788;-71
2023/07/25 15:28:21;;;;;;;0.60;0.10;;;20.50;9.40;;;;;;5070896;28;20524;-74
2023/07/25 15:30:49;;;;;;;0.60;0.10;;;20.50;8.30;;;;;;5066630;28;20574;-72
2023/07/25 15:33:17;;;;;;;0.60;0.20;;;;;;;;;;5072288;28;20949;-72
2023/07/25 15:35:46;;;;;;;0.60;0.10;;;20.60;6.30;;;;;;5073033;28;20442;-72
2023/07/25 15:38:14;;;;;;;0.60;0.10;;;20.60;7.10;;;;;;5071579;28;20445;-72
2023/07/25 15:40:42;;;;;;;0.70;0.20;;;20.50;4.50;;;;;;5069085;28;20457;-73
2023/07/25 15:43:10;;;;;;;0.60;0.10;;;20.60;1.00;;;;;;5068934;28;20961;-72
2023/07/25 15:45:38;;;;;;;0.60;0.10;;;20.60;1.00;;;;;;5058810;28;21023;-72
2023/07/25 15:48:06;;;;;;;0.60;0.10;;;20.60;2.10;;;;;;5069013;28;20484;-72
2023/07/25 15:50:34;;;;;;;0.60;0.10;;;24.00;5.40;;;;;;5063410;28;20532;-74
2023/07/25 15:53:04;;;;;;;0.60;0.10;;;20.70;2.50;;;;;;5071154;28;20532;-73
2023/07/25 15:55:31;;;;;;;0.60;0.10;;;20.80;1.00;;;;;;5068842;28;20448;-71
2023/07/25 15:57:59;;;;;;;0.60;0.13;;;20.80;1.00;;;;;;5069582;28;20449;-73
2023/07/25 16:00:27;;;;;;;0.60;0.20;;;20.90;1.00;;;;;;5064681;28;20505;-73
2023/07/25 16:02:55;;;;;;;0.60;0.10;;;20.90;1.00;;;;;;5071053;28;20434;-73
2023/07/25 16:05:23;;;;;;;0.60;0.20;;;20.90;1.00;;;;;;5066432;28;20465;-73
2023/07/25 16:07:51;;;;;;;0.60;0.10;;;20.90;1.00;;;;;;5057605;28;20541;-74
2023/07/25 16:10:20;;;;;;;1.00;0.87;;;20.90;1.00;;;;;;5060189;28;20473;-73
2023/07/25 16:12:48;;;;;;;0.60;0.10;;;20.90;1.00;;;;;;5068856;28;20679;-75
2023/07/25 16:15:16;;;;;;;0.60;0.10;;;20.80;1.00;;;;;;5066951;28;20507;-76
2023/07/25 16:17:45;;;;;;;0.60;0.10;;;20.80;1.00;;;;;;5065320;28;20524;-76
2023/07/25 16:20:13;;;;;;;0.60;0.10;;;20.70;1.00;;;;;;5070159;28;20531;-76
2023/07/25 16:22:41;;;;;;;0.60;0.10;;;;;;;;;;5064035;28;20570;-76
2023/07/25 16:25:09;;;;;;;0.60;0.10;;;20.60;1.00;;;;;;5059733;28;20826;-76
2023/07/25 16:27:38;;;;;;;0.60;0.20;;;20.50;1.00;;;;;;5053947;28;20450;-76
2023/07/25 16:30:14;;;;;;;0.60;0.20;;;20.50;1.00;;;;;;5066825;28;20453;-77
2023/07/25 16:32:42;;;;;;;0.70;0.40;;;;;;;;;;5063374;28;20909;-76
2023/07/25 16:35:11;;;;;;;0.60;0.10;;;20.40;1.00;;;;;;5072282;28;21133;-75
2023/07/25 16:37:40;;;;;;;0.67;0.37;;;20.40;1.00;;;;;;5070218;28;20442;-75
2023/07/25 16:40:08;;;;;;;0.60;0.20;;;20.30;1.00;;;;;;5070161;28;20477;-76
2023/07/25 16:42:40;;;;;;;0.60;0.10;;;20.40;1.00;;;;;;5055947;28;20582;-77
2023/07/25 16:45:08;;;;;;;0.60;0.10;;;;;;;;;;5051155;28;20539;-75
2023/07/25 16:47:36;;;;;;;0.60;0.10;;;;;;;;;;5051426;28;20545;-75
2023/07/25 16:50:05;;;;;;;0.60;0.10;;;20.30;1.00;;;;;;5051544;28;20974;-77
2023/07/25 16:52:34;;;;;;;0.70;0.30;;;20.20;1.00;;;;;;5052683;28;20553;-76
2023/07/25 16:55:02;;;;;;;0.60;0.10;;;20.20;1.00;;;;;;5053527;28;20456;-76
2023/07/25 16:57:30;;;;;;;0.70;0.40;;;20.20;1.00;;;;;;5053395;28;20506;-75
2023/07/25 16:59:59;;;;;;;0.60;0.10;;;20.10;1.00;;;;;;5053345;28;20691;-75
2023/07/25 17:02:29;;;;;;;0.60;0.20;;;;;;;;;;5053203;28;21014;-75
2023/07/25 17:05:01;;;;;;;0.60;0.10;;;;;;;;;;5052499;28;20938;-75
2023/07/25 17:07:29;;;;;;;0.60;0.10;;;;;;;;;;5052898;28;20500;-76
2023/07/25 17:09:57;;;;;;;1.43;0.30;;;20.00;1.00;;;;;;5052753;28;20805;-75